sensor_id;sensor_type;location;lat;lon;timestamp;pressure;altitude;pressure_sealevel;temperature;humidity
75136;BME280;63707;52.212;9.540;2023-07-13T00:00:11;99831.09;;;16.24;100.00
75136;BME280;63707;52.212;9.540;2023-07-13T00:02:38;99840.44;;;16.23;100.00
75136;BME280;63707;52.212;9.540;2023-07-13T00:05:04;99839.94;;;16.26;100.00
75136;BME280;63707;52.212;9.540;2023-07-13T00:07:30;99839.09;;;16.26;100.00
75136;BME280;63707;52.212;9.540;2023-07-13T00:09:56;99848.25;;;16.31;100.00
75136;BME280;63707;52.212;9.540;2023-07-13T00:12:24;99850.34;;;16.24;100.00
75136;BME280;63707;52.212;9.540;2023-07-13T00:14:50;99851.69;;;16.22;100.00
75136;BME280;63707;52.212;9.540;2023-07-13T00:17:15;99849.75;;;16.22;100.00
75136;BME280;63707;52.212;9.540;2023-07-13T00:19:42;99851.94;;;16.20;100.00
75136;BME280;63707;52.212;9.540;2023-07-13T00:22:07;99858.84;;;16.23;100.00
75136;BME280;63707;52.212;9.540;2023-07-13T00:24:33;99858.84;;;16.23;100.00
75136;BME280;63707;52.212;9.540;2023-07-13T00:26:59;99859.44;;;16.25;100.00
75136;BME280;63707;52.212;9.540;2023-07-13T00:29:26;99866.34;;;16.27;100.00
75136;BME280;63707;52.212;9.540;2023-07-13T00:31:51;99861.59;;;16.23;100.00
75136;BME280;63707;52.212;9.540;2023-07-13T00:34:16;99855.50;;;16.21;100.00
75136;BME280;63707;52.212;9.540;2023-07-13T00:36:44;99849.84;;;16.11;100.00
75136;BME280;63707;52.212;9.540;2023-07-13T00:39:10;99854.69;;;16.20;100.00
75136;BME280;63707;52.212;9.540;2023-07-13T00:41:35;99851.75;;;16.10;100.00
75136;BME280;63707;52.212;9.540;2023-07-13T00:44:02;99854.19;;;15.95;100.00
75136;BME280;63707;52.212;9.540;2023-07-13T00:46:30;99849.69;;;15.89;100.00
75136;BME280;63707;52.212;9.540;2023-07-13T00:48:58;99850.59;;;15.78;100.00
75136;BME280;63707;52.212;9.540;2023-07-13T00:51:30;99854.66;;;15.75;100.00
75136;BME280;63707;52.212;9.540;2023-07-13T00:54:01;99854.91;;;15.73;100.00
75136;BME280;63707;52.212;9.540;2023-07-13T00:56:28;99841.06;;;15.68;100.00
75136;BME280;63707;52.212;9.540;2023-07-13T00:58:55;99848.38;;;15.63;100.00
75136;BME280;63707;52.212;9.540;2023-07-13T01:01:21;99844.63;;;15.57;100.00
75136;BME280;63707;52.212;9.540;2023-07-13T01:03:46;99850.28;;;15.51;100.00
75136;BME280;63707;52.212;9.540;2023-07-13T01:06:12;99844.22;;;15.37;100.00
75136;BME280;63707;52.212;9.540;2023-07-13T01:08:38;99856.44;;;15.29;100.00
75136;BME280;63707;52.212;9.540;2023-07-13T01:11:06;99853.72;;;15.18;100.00
75136;BME280;63707;52.212;9.540;2023-07-13T01:13:33;99857.28;;;15.18;100.00
75136;BME280;63707;52.212;9.540;2023-07-13T01:16:03;99851.22;;;15.16;100.00
75136;BME280;63707;52.212;9.540;2023-07-13T01:18:29;99855.97;;;15.09;100.00
75136;BME280;63707;52.212;9.540;2023-07-13T01:20:57;99849.53;;;15.03;100.00
75136;BME280;63707;52.212;9.540;2023-07-13T01:23:24;99855.97;;;14.97;100.00
75136;BME280;63707;52.212;9.540;2023-07-13T01:25:50;99858.03;;;14.90;100.00
75136;BME280;63707;52.212;9.540;2023-07-13T01:28:16;99859.00;;;14.72;100.00
75136;BME280;63707;52.212;9.540;2023-07-13T01:30:43;99859.06;;;14.54;100.00
75136;BME280;63707;52.212;9.540;2023-07-13T01:33:11;99855.09;;;14.38;100.00
75136;BME280;63707;52.212;9.540;2023-07-13T01:35:37;99854.50;;;14.36;100.00
75136;BME280;63707;52.212;9.540;2023-07-13T01:38:04;99865.91;;;14.22;100.00
75136;BME280;63707;52.212;9.540;2023-07-13T01:40:29;99860.50;;;14.15;100.00
75136;BME280;63707;52.212;9.540;2023-07-13T01:42:55;99861.59;;;14.14;100.00
75136;BME280;63707;52.212;9.540;2023-07-13T01:45:21;99859.75;;;13.96;100.00
75136;BME280;63707;52.212;9.540;2023-07-13T01:47:46;99852.56;;;13.83;100.00
75136;BME280;63707;52.212;9.540;2023-07-13T01:50:12;99866.13;;;13.78;100.00
75136;BME280;63707;52.212;9.540;2023-07-13T01:52:38;99864.44;;;13.77;100.00
75136;BME280;63707;52.212;9.540;2023-07-13T01:55:06;99867.25;;;13.71;100.00
75136;BME280;63707;52.212;9.540;2023-07-13T01:57:32;99868.72;;;13.73;100.00
75136;BME280;63707;52.212;9.540;2023-07-13T01:59:57;99874.44;;;13.72;100.00
75136;BME280;63707;52.212;9.540;2023-07-13T02:02:23;99871.97;;;13.64;100.00
75136;BME280;63707;52.212;9.540;2023-07-13T02:04:48;99874.81;;;13.57;100.00
75136;BME280;63707;52.212;9.540;2023-07-13T02:07:14;99872.06;;;13.57;100.00
75136;BME280;63707;52.212;9.540;2023-07-13T02:09:40;99871.69;;;13.72;100.00
75136;BME280;63707;52.212;9.540;2023-07-13T02:12:08;99869.25;;;13.64;100.00
75136;BME280;63707;52.212;9.540;2023-07-13T02:14:34;99870.56;;;13.91;100.00
75136;BME280;63707;52.212;9.540;2023-07-13T02:17:00;99869.03;;;13.95;100.00
75136;BME280;63707;52.212;9.540;2023-07-13T02:19:25;99878.88;;;13.84;100.00
75136;BME280;63707;52.212;9.540;2023-07-13T02:21:50;99871.53;;;13.67;100.00
75136;BME280;63707;52.212;9.540;2023-07-13T02:24:16;99873.97;;;13.57;100.00
75136;BME280;63707;52.212;9.540;2023-07-13T02:26:44;99883.50;;;13.54;100.00
75136;BME280;63707;52.212;9.540;2023-07-13T02:29:11;99890.03;;;13.53;100.00
75136;BME280;63707;52.212;9.540;2023-07-13T02:31:37;99888.81;;;13.49;100.00
75136;BME280;63707;52.212;9.540;2023-07-13T02:34:03;99891.63;;;13.42;100.00
75136;BME280;63707;52.212;9.540;2023-07-13T02:36:29;99890.06;;;13.35;100.00
75136;BME280;63707;52.212;9.540;2023-07-13T02:38:54;99890.59;;;13.25;100.00
75136;BME280;63707;52.212;9.540;2023-07-13T02:41:20;99889.56;;;13.19;100.00
75136;BME280;63707;52.212;9.540;2023-07-13T02:43:45;99893.25;;;13.07;100.00
75136;BME280;63707;52.212;9.540;2023-07-13T02:46:12;99879.97;;;13.10;100.00
75136;BME280;63707;52.212;9.540;2023-07-13T02:48:38;99873.28;;;13.06;100.00
75136;BME280;63707;52.212;9.540;2023-07-13T02:51:04;99862.19;;;13.01;100.00
75136;BME280;63707;52.212;9.540;2023-07-13T02:53:30;99872.28;;;13.01;100.00
75136;BME280;63707;52.212;9.540;2023-07-13T02:55:55;99876.38;;;12.91;100.00
75136;BME280;63707;52.212;9.540;2023-07-13T02:58:21;99882.38;;;13.00;100.00
75136;BME280;63707;52.212;9.540;2023-07-13T03:00:47;99880.88;;;13.04;100.00
75136;BME280;63707;52.212;9.540;2023-07-13T03:03:14;99879.66;;;13.00;100.00
75136;BME280;63707;52.212;9.540;2023-07-13T03:05:41;99870.63;;;13.00;100.00
75136;BME280;63707;52.212;9.540;2023-07-13T03:08:07;99878.66;;;12.95;100.00
75136;BME280;63707;52.212;9.540;2023-07-13T03:10:33;99886.94;;;12.88;100.00
75136;BME280;63707;52.212;9.540;2023-07-13T03:12:58;99890.66;;;12.93;100.00
75136;BME280;63707;52.212;9.540;2023-07-13T03:15:24;99889.06;;;13.04;100.00
75136;BME280;63707;52.212;9.540;2023-07-13T03:17:49;99873.81;;;13.15;100.00
75136;BME280;63707;52.212;9.540;2023-07-13T03:20:16;99879.91;;;13.17;100.00
75136;BME280;63707;52.212;9.540;2023-07-13T03:22:42;99882.44;;;13.18;100.00
75136;BME280;63707;52.212;9.540;2023-07-13T03:25:08;99878.41;;;13.21;100.00
75136;BME280;63707;52.212;9.540;2023-07-13T03:27:33;99875.00;;;13.26;100.00
75136;BME280;63707;52.212;9.540;2023-07-13T03:29:59;99871.34;;;13.32;100.00
75136;BME280;63707;52.212;9.540;2023-07-13T03:32:24;99884.72;;;13.40;100.00
75136;BME280;63707;52.212;9.540;2023-07-13T03:34:50;99877.50;;;13.45;100.00
75136;BME280;63707;52.212;9.540;2023-07-13T03:37:17;99884.78;;;13.51;100.00
75136;BME280;63707;52.212;9.540;2023-07-13T03:39:42;99880.53;;;13.55;100.00
75136;BME280;63707;52.212;9.540;2023-07-13T03:42:08;99877.22;;;13.65;100.00
75136;BME280;63707;52.212;9.540;2023-07-13T03:44:35;99881.59;;;13.73;100.00
75136;BME280;63707;52.212;9.540;2023-07-13T03:47:01;99875.69;;;13.69;100.00
75136;BME280;63707;52.212;9.540;2023-07-13T03:49:26;99881.34;;;13.56;100.00
75136;BME280;63707;52.212;9.540;2023-07-13T03:51:52;99883.81;;;13.46;100.00
75136;BME280;63707;52.212;9.540;2023-07-13T03:54:19;99885.09;;;13.43;100.00
75136;BME280;63707;52.212;9.540;2023-07-13T03:56:44;99893.78;;;13.40;100.00
75136;BME280;63707;52.212;9.540;2023-07-13T03:59:10;99890.88;;;13.35;100.00
75136;BME280;63707;52.212;9.540;2023-07-13T04:01:35;99893.94;;;13.27;100.00
75136;BME280;63707;52.212;9.540;2023-07-13T04:04:00;99903.81;;;13.28;100.00
75136;BME280;63707;52.212;9.540;2023-07-13T04:06:28;99903.81;;;13.28;100.00
75136;BME280;63707;52.212;9.540;2023-07-13T04:08:56;99903.81;;;13.28;100.00
75136;BME280;63707;52.212;9.540;2023-07-13T04:11:24;99897.09;;;13.24;100.00
75136;BME280;63707;52.212;9.540;2023-07-13T04:13:50;99903.81;;;13.28;100.00
75136;BME280;63707;52.212;9.540;2023-07-13T04:16:16;99907.16;;;13.30;100.00
75136;BME280;63707;52.212;9.540;2023-07-13T04:18:42;99901.22;;;13.33;100.00
75136;BME280;63707;52.212;9.540;2023-07-13T04:21:09;99903.19;;;13.44;100.00
75136;BME280;63707;52.212;9.540;2023-07-13T04:23:34;99896.63;;;13.64;100.00
75136;BME280;63707;52.212;9.540;2023-07-13T04:26:00;99901.50;;;13.62;100.00
75136;BME280;63707;52.212;9.540;2023-07-13T04:28:27;99908.88;;;13.61;100.00
75136;BME280;63707;52.212;9.540;2023-07-13T04:30:53;99914.88;;;13.70;100.00
75136;BME280;63707;52.212;9.540;2023-07-13T04:33:18;99905.75;;;13.76;100.00
75136;BME280;63707;52.212;9.540;2023-07-13T04:35:47;99909.78;;;14.03;100.00
75136;BME280;63707;52.212;9.540;2023-07-13T04:38:13;99908.00;;;14.27;100.00
75136;BME280;63707;52.212;9.540;2023-07-13T04:40:40;99907.19;;;14.38;100.00
75136;BME280;63707;52.212;9.540;2023-07-13T04:43:05;99906.03;;;14.46;100.00
75136;BME280;63707;52.212;9.540;2023-07-13T04:45:32;99909.97;;;14.50;100.00
75136;BME280;63707;52.212;9.540;2023-07-13T04:47:57;99912.50;;;14.63;100.00
75136;BME280;63707;52.212;9.540;2023-07-13T04:50:23;99915.38;;;14.68;100.00
75136;BME280;63707;52.212;9.540;2023-07-13T04:52:49;99909.19;;;14.73;100.00
75136;BME280;63707;52.212;9.540;2023-07-13T04:55:15;99912.72;;;14.62;100.00
75136;BME280;63707;52.212;9.540;2023-07-13T04:57:41;99910.84;;;14.74;100.00
75136;BME280;63707;52.212;9.540;2023-07-13T05:00:07;99915.63;;;14.90;100.00
75136;BME280;63707;52.212;9.540;2023-07-13T05:02:34;99919.06;;;15.09;100.00
75136;BME280;63707;52.212;9.540;2023-07-13T05:05:01;99922.28;;;15.41;100.00
75136;BME280;63707;52.212;9.540;2023-07-13T05:07:26;99907.97;;;15.62;100.00
75136;BME280;63707;52.212;9.540;2023-07-13T05:09:52;99910.97;;;15.61;100.00
75136;BME280;63707;52.212;9.540;2023-07-13T05:12:18;99924.28;;;15.57;100.00
75136;BME280;63707;52.212;9.540;2023-07-13T05:14:43;99929.31;;;15.72;100.00
75136;BME280;63707;52.212;9.540;2023-07-13T05:17:09;99921.81;;;15.67;100.00
75136;BME280;63707;52.212;9.540;2023-07-13T05:19:36;99927.41;;;15.72;100.00
75136;BME280;63707;52.212;9.540;2023-07-13T05:22:01;99928.59;;;15.77;100.00
75136;BME280;63707;52.212;9.540;2023-07-13T05:24:28;99923.09;;;15.77;100.00
75136;BME280;63707;52.212;9.540;2023-07-13T05:26:54;99924.59;;;15.84;100.00
75136;BME280;63707;52.212;9.540;2023-07-13T05:29:20;99930.00;;;15.79;100.00
75136;BME280;63707;52.212;9.540;2023-07-13T05:31:45;99927.13;;;15.86;100.00
75136;BME280;63707;52.212;9.540;2023-07-13T05:34:11;99941.59;;;15.81;100.00
75136;BME280;63707;52.212;9.540;2023-07-13T05:36:37;99931.53;;;15.87;100.00
75136;BME280;63707;52.212;9.540;2023-07-13T05:39:03;99931.91;;;16.07;100.00
75136;BME280;63707;52.212;9.540;2023-07-13T05:41:29;99933.59;;;16.08;100.00
75136;BME280;63707;52.212;9.540;2023-07-13T05:43:55;99924.41;;;16.02;100.00
75136;BME280;63707;52.212;9.540;2023-07-13T05:46:20;99928.06;;;16.20;100.00
75136;BME280;63707;52.212;9.540;2023-07-13T05:48:46;99924.81;;;16.23;100.00
75136;BME280;63707;52.212;9.540;2023-07-13T05:51:11;99925.34;;;16.36;100.00
75136;BME280;63707;52.212;9.540;2023-07-13T05:53:38;99930.09;;;16.41;100.00
75136;BME280;63707;52.212;9.540;2023-07-13T05:56:04;99939.09;;;16.53;100.00
75136;BME280;63707;52.212;9.540;2023-07-13T05:58:29;99945.25;;;16.44;100.00
75136;BME280;63707;52.212;9.540;2023-07-13T06:00:59;99932.06;;;16.57;100.00
75136;BME280;63707;52.212;9.540;2023-07-13T06:03:25;99941.16;;;16.58;100.00
75136;BME280;63707;52.212;9.540;2023-07-13T06:05:51;99940.84;;;16.71;100.00
75136;BME280;63707;52.212;9.540;2023-07-13T06:08:16;99935.84;;;16.85;100.00
75136;BME280;63707;52.212;9.540;2023-07-13T06:10:43;99941.94;;;16.87;100.00
75136;BME280;63707;52.212;9.540;2023-07-13T06:13:09;99943.34;;;17.06;100.00
75136;BME280;63707;52.212;9.540;2023-07-13T06:15:34;99948.50;;;17.03;100.00
75136;BME280;63707;52.212;9.540;2023-07-13T06:17:59;99939.25;;;17.09;100.00
75136;BME280;63707;52.212;9.540;2023-07-13T06:20:25;99935.97;;;17.28;100.00
75136;BME280;63707;52.212;9.540;2023-07-13T06:22:50;99938.94;;;17.44;100.00
75136;BME280;63707;52.212;9.540;2023-07-13T06:25:16;99934.06;;;17.68;100.00
75136;BME280;63707;52.212;9.540;2023-07-13T06:27:44;99938.44;;;17.47;100.00
75136;BME280;63707;52.212;9.540;2023-07-13T06:30:11;99941.69;;;17.44;100.00
75136;BME280;63707;52.212;9.540;2023-07-13T06:32:36;99950.03;;;17.87;100.00
75136;BME280;63707;52.212;9.540;2023-07-13T06:35:02;99948.72;;;18.17;100.00
75136;BME280;63707;52.212;9.540;2023-07-13T06:37:28;99955.75;;;18.03;100.00
75136;BME280;63707;52.212;9.540;2023-07-13T06:39:53;99957.56;;;18.19;100.00
75136;BME280;63707;52.212;9.540;2023-07-13T06:42:18;99954.25;;;18.17;100.00
75136;BME280;63707;52.212;9.540;2023-07-13T06:44:45;99964.88;;;18.57;100.00
75136;BME280;63707;52.212;9.540;2023-07-13T06:47:11;99961.78;;;19.07;100.00
75136;BME280;63707;52.212;9.540;2023-07-13T06:49:36;99962.56;;;19.03;100.00
75136;BME280;63707;52.212;9.540;2023-07-13T06:52:02;99966.91;;;18.62;100.00
75136;BME280;63707;52.212;9.540;2023-07-13T06:54:28;99962.00;;;19.01;100.00
75136;BME280;63707;52.212;9.540;2023-07-13T06:56:53;99965.00;;;18.94;100.00
75136;BME280;63707;52.212;9.540;2023-07-13T06:59:19;99966.09;;;19.35;100.00
75136;BME280;63707;52.212;9.540;2023-07-13T07:01:46;99967.94;;;19.57;100.00
75136;BME280;63707;52.212;9.540;2023-07-13T07:04:11;99966.94;;;19.73;100.00
75136;BME280;63707;52.212;9.540;2023-07-13T07:06:37;99972.41;;;19.26;100.00
75136;BME280;63707;52.212;9.540;2023-07-13T07:09:02;99970.09;;;19.97;100.00
75136;BME280;63707;52.212;9.540;2023-07-13T07:11:28;99969.59;;;20.15;100.00
75136;BME280;63707;52.212;9.540;2023-07-13T07:13:54;99974.81;;;20.01;100.00
75136;BME280;63707;52.212;9.540;2023-07-13T07:16:20;99967.50;;;19.80;100.00
75136;BME280;63707;52.212;9.540;2023-07-13T07:18:47;99956.94;;;20.34;100.00
75136;BME280;63707;52.212;9.540;2023-07-13T07:21:13;99969.41;;;19.74;100.00
75136;BME280;63707;52.212;9.540;2023-07-13T07:23:39;99956.66;;;19.63;100.00
75136;BME280;63707;52.212;9.540;2023-07-13T07:26:04;99968.44;;;19.11;100.00
75136;BME280;63707;52.212;9.540;2023-07-13T07:28:30;99975.25;;;18.99;100.00
75136;BME280;63707;52.212;9.540;2023-07-13T07:30:56;99976.56;;;18.64;100.00
75136;BME280;63707;52.212;9.540;2023-07-13T07:33:23;99976.78;;;18.90;100.00
75136;BME280;63707;52.212;9.540;2023-07-13T07:35:50;99974.88;;;19.22;100.00
75136;BME280;63707;52.212;9.540;2023-07-13T07:38:16;99966.06;;;19.67;100.00
75136;BME280;63707;52.212;9.540;2023-07-13T07:40:42;99967.72;;;19.63;100.00
75136;BME280;63707;52.212;9.540;2023-07-13T07:43:07;99969.19;;;19.86;100.00
75136;BME280;63707;52.212;9.540;2023-07-13T07:45:33;99965.56;;;19.80;100.00
75136;BME280;63707;52.212;9.540;2023-07-13T07:47:59;99964.47;;;20.49;100.00
75136;BME280;63707;52.212;9.540;2023-07-13T07:50:24;99964.00;;;19.95;100.00
75136;BME280;63707;52.212;9.540;2023-07-13T07:52:51;99967.38;;;20.17;100.00
75136;BME280;63707;52.212;9.540;2023-07-13T07:55:17;99966.13;;;20.40;100.00
75136;BME280;63707;52.212;9.540;2023-07-13T07:57:42;99959.38;;;20.16;100.00
75136;BME280;63707;52.212;9.540;2023-07-13T08:00:09;99971.25;;;20.16;100.00
75136;BME280;63707;52.212;9.540;2023-07-13T08:02:34;99967.94;;;20.19;100.00
75136;BME280;63707;52.212;9.540;2023-07-13T08:05:00;99967.53;;;20.48;100.00
75136;BME280;63707;52.212;9.540;2023-07-13T08:07:25;99965.38;;;21.31;100.00
75136;BME280;63707;52.212;9.540;2023-07-13T08:09:53;99963.13;;;20.72;100.00
75136;BME280;63707;52.212;9.540;2023-07-13T08:12:19;99972.84;;;20.85;100.00
75136;BME280;63707;52.212;9.540;2023-07-13T08:14:44;99971.41;;;20.52;100.00
75136;BME280;63707;52.212;9.540;2023-07-13T08:17:10;99965.38;;;20.90;100.00
75136;BME280;63707;52.212;9.540;2023-07-13T08:19:35;99958.44;;;21.08;100.00
75136;BME280;63707;52.212;9.540;2023-07-13T08:22:00;99962.06;;;21.29;100.00
75136;BME280;63707;52.212;9.540;2023-07-13T08:24:26;99962.56;;;21.16;100.00
75136;BME280;63707;52.212;9.540;2023-07-13T08:26:53;99966.16;;;20.70;100.00
75136;BME280;63707;52.212;9.540;2023-07-13T08:29:18;99965.56;;;21.65;100.00
75136;BME280;63707;52.212;9.540;2023-07-13T08:31:44;99973.34;;;21.68;100.00
75136;BME280;63707;52.212;9.540;2023-07-13T08:34:10;99978.88;;;21.68;100.00
75136;BME280;63707;52.212;9.540;2023-07-13T08:36:36;99984.75;;;21.46;100.00
75136;BME280;63707;52.212;9.540;2023-07-13T08:39:01;99976.41;;;21.61;100.00
75136;BME280;63707;52.212;9.540;2023-07-13T08:41:27;99969.78;;;21.17;100.00
75136;BME280;63707;52.212;9.540;2023-07-13T08:43:57;99983.09;;;20.84;100.00
75136;BME280;63707;52.212;9.540;2023-07-13T08:46:26;99989.47;;;21.05;100.00
75136;BME280;63707;52.212;9.540;2023-07-13T08:48:56;99982.25;;;20.94;100.00
75136;BME280;63707;52.212;9.540;2023-07-13T08:51:31;99984.69;;;20.45;100.00
75136;BME280;63707;52.212;9.540;2023-07-13T08:54:02;99966.97;;;20.46;100.00
75136;BME280;63707;52.212;9.540;2023-07-13T08:56:30;99980.56;;;20.62;100.00
75136;BME280;63707;52.212;9.540;2023-07-13T08:59:00;99984.06;;;20.37;100.00
75136;BME280;63707;52.212;9.540;2023-07-13T09:01:31;99986.41;;;20.96;100.00
75136;BME280;63707;52.212;9.540;2023-07-13T09:04:03;99978.72;;;22.19;100.00
75136;BME280;63707;52.212;9.540;2023-07-13T09:06:35;99983.38;;;21.08;100.00
75136;BME280;63707;52.212;9.540;2023-07-13T09:09:10;99991.22;;;20.28;100.00
75136;BME280;63707;52.212;9.540;2023-07-13T09:11:46;99994.69;;;21.62;100.00
75136;BME280;63707;52.212;9.540;2023-07-13T09:14:30;99979.94;;;22.52;100.00
75136;BME280;63707;52.212;9.540;2023-07-13T09:16:59;99981.41;;;22.39;100.00
75136;BME280;63707;52.212;9.540;2023-07-13T09:19:28;99979.22;;;21.26;100.00
75136;BME280;63707;52.212;9.540;2023-07-13T09:21:55;99988.34;;;20.86;100.00
75136;BME280;63707;52.212;9.540;2023-07-13T09:24:36;99983.09;;;21.04;100.00
75136;BME280;63707;52.212;9.540;2023-07-13T09:27:09;99996.88;;;20.59;100.00
75136;BME280;63707;52.212;9.540;2023-07-13T09:29:41;99975.09;;;22.73;100.00
75136;BME280;63707;52.212;9.540;2023-07-13T09:32:12;99984.13;;;21.69;100.00
75136;BME280;63707;52.212;9.540;2023-07-13T09:34:40;99978.66;;;22.34;100.00
75136;BME280;63707;52.212;9.540;2023-07-13T09:37:05;99993.75;;;22.13;100.00
75136;BME280;63707;52.212;9.540;2023-07-13T09:39:34;99989.88;;;21.98;100.00
75136;BME280;63707;52.212;9.540;2023-07-13T09:42:06;99995.28;;;21.03;100.00
75136;BME280;63707;52.212;9.540;2023-07-13T09:44:35;99986.69;;;21.46;100.00
75136;BME280;63707;52.212;9.540;2023-07-13T09:47:03;99991.41;;;21.45;100.00
75136;BME280;63707;52.212;9.540;2023-07-13T09:49:32;99999.91;;;20.52;100.00
75136;BME280;63707;52.212;9.540;2023-07-13T09:52:00;99989.59;;;22.00;100.00
75136;BME280;63707;52.212;9.540;2023-07-13T09:54:27;99980.56;;;22.88;100.00
75136;BME280;63707;52.212;9.540;2023-07-13T09:56:56;99980.38;;;24.19;100.00
75136;BME280;63707;52.212;9.540;2023-07-13T09:59:24;99982.91;;;22.71;100.00
75136;BME280;63707;52.212;9.540;2023-07-13T10:01:49;99995.13;;;22.10;100.00
75136;BME280;63707;52.212;9.540;2023-07-13T10:04:19;99995.63;;;22.27;100.00
75136;BME280;63707;52.212;9.540;2023-07-13T10:06:45;99981.84;;;23.35;100.00
75136;BME280;63707;52.212;9.540;2023-07-13T10:09:15;99990.22;;;24.35;100.00
75136;BME280;63707;52.212;9.540;2023-07-13T10:11:41;99990.59;;;23.23;100.00
75136;BME280;63707;52.212;9.540;2023-07-13T10:14:12;99990.44;;;23.04;100.00
75136;BME280;63707;52.212;9.540;2023-07-13T10:16:39;99988.91;;;22.88;100.00
75136;BME280;63707;52.212;9.540;2023-07-13T10:19:12;99985.75;;;24.10;100.00
75136;BME280;63707;52.212;9.540;2023-07-13T10:21:55;99983.53;;;23.89;100.00
75136;BME280;63707;52.212;9.540;2023-07-13T10:24:22;99984.75;;;25.38;100.00
75136;BME280;63707;52.212;9.540;2023-07-13T10:26:50;99985.66;;;25.01;100.00
75136;BME280;63707;52.212;9.540;2023-07-13T10:29:19;99977.81;;;24.65;100.00
75136;BME280;63707;52.212;9.540;2023-07-13T10:31:45;99977.81;;;25.03;100.00
75136;BME280;63707;52.212;9.540;2023-07-13T10:34:12;99981.44;;;23.99;100.00
75136;BME280;63707;52.212;9.540;2023-07-13T10:36:40;99990.56;;;24.05;100.00
75136;BME280;63707;52.212;9.540;2023-07-13T10:39:16;99987.47;;;25.10;100.00
75136;BME280;63707;52.212;9.540;2023-07-13T10:41:44;99994.22;;;25.23;100.00
75136;BME280;63707;52.212;9.540;2023-07-13T10:44:23;99983.16;;;24.99;100.00
75136;BME280;63707;52.212;9.540;2023-07-13T10:46:53;99979.06;;;24.92;100.00
75136;BME280;63707;52.212;9.540;2023-07-13T10:49:20;99995.59;;;25.39;100.00
75136;BME280;63707;52.212;9.540;2023-07-13T10:51:46;99991.13;;;24.31;100.00
75136;BME280;63707;52.212;9.540;2023-07-13T10:54:20;99996.38;;;23.84;100.00
75136;BME280;63707;52.212;9.540;2023-07-13T10:56:50;100010.91;;;22.25;100.00
75136;BME280;63707;52.212;9.540;2023-07-13T10:59:17;100008.53;;;21.88;100.00
75136;BME280;63707;52.212;9.540;2023-07-13T11:01:52;100006.00;;;23.39;100.00
75136;BME280;63707;52.212;9.540;2023-07-13T11:04:20;100005.38;;;24.24;100.00
75136;BME280;63707;52.212;9.540;2023-07-13T11:06:48;99989.59;;;25.32;100.00
75136;BME280;63707;52.212;9.540;2023-07-13T11:09:30;99995.16;;;25.00;100.00
75136;BME280;63707;52.212;9.540;2023-07-13T11:11:58;100002.91;;;23.41;100.00
75136;BME280;63707;52.212;9.540;2023-07-13T11:14:30;100003.44;;;22.70;100.00
75136;BME280;63707;52.212;9.540;2023-07-13T11:16:56;100008.78;;;23.05;100.00
75136;BME280;63707;52.212;9.540;2023-07-13T11:19:39;100002.59;;;23.76;100.00
75136;BME280;63707;52.212;9.540;2023-07-13T11:22:15;100002.59;;;24.67;100.00
75136;BME280;63707;52.212;9.540;2023-07-13T11:24:56;100002.53;;;23.52;100.00
75136;BME280;63707;52.212;9.540;2023-07-13T11:27:37;100023.72;;;22.00;100.00
75136;BME280;63707;52.212;9.540;2023-07-13T11:30:13;100012.47;;;21.46;100.00
75136;BME280;63707;52.212;9.540;2023-07-13T11:32:45;100016.81;;;21.98;100.00
75136;BME280;63707;52.212;9.540;2023-07-13T11:35:23;100017.31;;;22.75;100.00
75136;BME280;63707;52.212;9.540;2023-07-13T11:37:51;99998.25;;;24.61;100.00
75136;BME280;63707;52.212;9.540;2023-07-13T11:40:19;99989.25;;;25.01;100.00
75136;BME280;63707;52.212;9.540;2023-07-13T11:42:47;100001.34;;;23.88;100.00
75136;BME280;63707;52.212;9.540;2023-07-13T11:45:19;100003.41;;;23.14;100.00
75136;BME280;63707;52.212;9.540;2023-07-13T11:47:48;100009.22;;;23.22;100.00
75136;BME280;63707;52.212;9.540;2023-07-13T11:50:18;100006.88;;;23.01;100.00
75136;BME280;63707;52.212;9.540;2023-07-13T11:52:44;100001.56;;;23.04;100.00
75136;BME280;63707;52.212;9.540;2023-07-13T11:55:14;99995.13;;;23.09;100.00
75136;BME280;63707;52.212;9.540;2023-07-13T11:57:45;99988.94;;;24.46;100.00
75136;BME280;63707;52.212;9.540;2023-07-13T12:00:14;99982.50;;;25.07;100.00
75136;BME280;63707;52.212;9.540;2023-07-13T12:02:42;99977.19;;;25.06;100.00
75136;BME280;63707;52.212;9.540;2023-07-13T12:05:11;99981.66;;;25.53;100.00
75136;BME280;63707;52.212;9.540;2023-07-13T12:07:38;99997.16;;;24.57;100.00
75136;BME280;63707;52.212;9.540;2023-07-13T12:10:17;99988.31;;;25.57;100.00
75136;BME280;63707;52.212;9.540;2023-07-13T12:12:48;99992.44;;;24.14;100.00
75136;BME280;63707;52.212;9.540;2023-07-13T12:15:13;100002.66;;;24.19;100.00
75136;BME280;63707;52.212;9.540;2023-07-13T12:17:40;100000.78;;;24.14;100.00
75136;BME280;63707;52.212;9.540;2023-07-13T12:20:20;100000.47;;;23.92;100.00
75136;BME280;63707;52.212;9.540;2023-07-13T12:22:46;99993.88;;;24.73;100.00
75136;BME280;63707;52.212;9.540;2023-07-13T12:25:12;100001.25;;;24.64;100.00
75136;BME280;63707;52.212;9.540;2023-07-13T12:27:39;99992.66;;;23.94;100.00
75136;BME280;63707;52.212;9.540;2023-07-13T12:30:23;99982.09;;;24.58;100.00
75136;BME280;63707;52.212;9.540;2023-07-13T12:33:01;99990.59;;;24.29;100.00
75136;BME280;63707;52.212;9.540;2023-07-13T12:35:29;99988.28;;;24.55;100.00
75136;BME280;63707;52.212;9.540;2023-07-13T12:38:01;100000.00;;;23.56;100.00
75136;BME280;63707;52.212;9.540;2023-07-13T12:40:31;100000.31;;;22.86;100.00
75136;BME280;63707;52.212;9.540;2023-07-13T12:42:58;100009.25;;;22.24;100.00
75136;BME280;63707;52.212;9.540;2023-07-13T12:45:27;100005.84;;;22.37;100.00
75136;BME280;63707;52.212;9.540;2023-07-13T12:47:57;100009.94;;;22.50;100.00
75136;BME280;63707;52.212;9.540;2023-07-13T12:50:30;100010.75;;;21.76;100.00